Glendive, MT (59330)

8:53 AM MDT on July 21, 2017 (GMT -0600)
Jefferson Elementary School | | Change Station
Active Advisory: Fire Weather Warning

Elev 2119 ft 47.11 °N, 104.75 °W | Updated 4 minutes ago

Clear
Clear
76.9 °F
Feels Like 79 °F
N
5.0
Wind Variable Wind from East

Today
High -- | Low -- °F
--% Chance of Precip.
Yesterday
High -- | Low -- °F
Precip. -- in
Pressure 29.79 in
Visibility 10.0 miles
Clouds Clear
Heat Index 79 °F
Dew Point 63 °F
Humidity 63%
Rainfall 0.00 in
Snow Depth Not available.
5:25 AM 8:44 PM
Waning Crescent, 5% visible
METAR KGDV 211356Z AUTO 04010KT 10SM CLR 22/15 A2984 RMK AO2 SLP087 T02170150 $
Pressure 29.79 in
Visibility 10.0 miles
Clouds Clear
Heat Index 79 °F
Dew Point 63 °F
Humidity 63%
Rainfall 0.00 in
Snow Depth Not available.
5:25 AM 8:44 PM
Waning Crescent, 5% visible
METAR KGDV 211356Z AUTO 04010KT 10SM CLR 22/15 A2984 RMK AO2 SLP087 T02170150 $

Get Your Daily Forecast Email!

Thanks for signing up!

Be on the lookout for a verification email in your inbox.

You'll start receiving severe weather alerts in your inbox..

×

10-Day Weather Forecast

Almanac

Astronomy

Jul. 21, 2017 Rise Set
Actual Time
Civil Twilight
Nautical Twilight
Astronomical Twilight
Moon
Length of Visible Light
Length of Day
Tomorrow will be .
, % of the Moon is Illuminated

Today's Extremes

State Highs State Lows

Community

WunderPhotos

Category 6

Welcome to Category 6. This is the collective home for Weather Underground's featured writeups by Dr. Jeff Masters (right), Bob Henson (left), Chris Burt, and other regular contributors.

Nearby

Air Quality

  Air Quality AQ Index Pollutant
Not available.

Snow Depth

Station Depth Elevation

Earthquake Activity

City Distance Mag. Time & Date
Minimum magnitude displayed is 2.5.

Coastal Water Temperatures

Place Temperature

Stations

Nearby Weather Stations

Station Location Temp. Windchill Dew Point Humidity Wind Precip. Elev Updated Type
                   

Watches & Warnings

Fire Weather Warning
Issued: 3:33 AM MDT Jul. 21, 2017 – National Weather Service

... Red flag warning remains in effect until 9 PM MDT this evening
for low relative humidity and gusty wind for fire weather zones
120, 122, and 134...

* affected area... fire weather zones 120... 122 and 134.

* Winds... northwest 10 to 20 mph with gusts up to 30 mph.

* Timing... today through 9 PM MDT.

* Min relative humidity... 10 to 15 percent.

* High temperatures... in the mid 80s to around 90.

* Impacts... low relative humidity and gusty winds will create
the potential for erratic fire behavior.

Precautionary/preparedness actions...

Please advise the appropriate officials or fire crews in these
areas of this red flag warning.



Http://www.Weather.Gov/Glasgow